Ikan Parang — 9V9099 — position and weather

sailwx.info

Track history (hours):
 
Tides and Currents Weather Stations Pressure Air Temp Water Temp Dewpoint Dewpoint Depression Visibility Wind Speed Wind Dir Waves Ship Positions

Ikan Parang

Last reported at 2017-Jul-12 00:37 UTC. Time now 2017-Aug-21 12:03 UTC.
Position N 01°15' E 103°25'.
Warning: this ship's position is 40 days out of date.

Length 183 m; draft 10.7 m.

Type: Cargo ship. MMSI: 566238000.

Date/timePositionNaut miles runAvg speedWind from/ knotsBaromVisibWave heightAir tempDewpointWater temp
2017-Jul-12 00:37N 01°15' E 103°25'213.5
2017-Jul-12 00:28N 01°14' E 103°26'713.1
2017-Jul-11 23:58N 01°13' E 103°33'612.8
2017-Jul-11 23:30N 01°11' E 103°38'611.6
2017-Jul-11 23:00N 01°09' E 103°44'4 8.8
2017-Jul-11 22:30N 01°10' E 103°48'4 8.7
2017-Jul-11 22:00N 01°12' E 103°52'5 8.6
2017-Jul-11 21:29N 01°14' E 103°56'5 5.3
2017-Jul-11 20:31N 01°17' E 103°60'0 1.5
2017-Jul-11 20:30N 01°18' E 103°60'0 0.0
2017-Jul-11 11:19N 01°17' E 103°59'1 2.9
2017-Jul-11 10:58N 01°17' E 103°59'  
Track history (hours):
 
Tides and Currents Weather Stations Pressure Air Temp Water Temp Dewpoint Dewpoint Depression Visibility Wind Speed Wind Dir Waves Ship Positions

Ikan Parang

Last reported at 2017-Jul-12 00:37 UTC. Time now 2017-Aug-21 12:03 UTC.
Position N 01°15' E 103°25'.
Warning: this ship's position is 40 days out of date.

Length 183 m; draft 10.7 m.

Type: Cargo ship. MMSI: 566238000.

Date/timePositionNaut miles runAvg speedWind from/ knotsBaromVisibWave heightAir tempDewpointWater temp
2017-Jul-12 00:37N 01°15' E 103°25'213.5
2017-Jul-12 00:28N 01°14' E 103°26'713.1
2017-Jul-11 23:58N 01°13' E 103°33'612.8
2017-Jul-11 23:30N 01°11' E 103°38'611.6
2017-Jul-11 23:00N 01°09' E 103°44'4 8.8
2017-Jul-11 22:30N 01°10' E 103°48'4 8.7
2017-Jul-11 22:00N 01°12' E 103°52'5 8.6
2017-Jul-11 21:29N 01°14' E 103°56'5 5.3
2017-Jul-11 20:31N 01°17' E 103°60'0 1.5
2017-Jul-11 20:30N 01°18' E 103°60'0 0.0
2017-Jul-11 11:19N 01°17' E 103°59'1 2.9
2017-Jul-11 10:58N 01°17' E 103°59'  

Dump ship's entire track history